sensor_id;sensor_type;location;lat;lon;timestamp;P1;durP1;ratioP1;P2;durP2;ratioP2
48727;SDS011;34527;45.618;5.130;2022-09-21T00:00:35;4.80;;;1.42;;
48727;SDS011;34527;45.618;5.130;2022-09-21T00:03:01;1.88;;;1.33;;
48727;SDS011;34527;45.618;5.130;2022-09-21T00:05:28;2.30;;;1.50;;
48727;SDS011;34527;45.618;5.130;2022-09-21T00:07:54;3.55;;;1.38;;
48727;SDS011;34527;45.618;5.130;2022-09-21T00:10:20;4.43;;;1.52;;
48727;SDS011;34527;45.618;5.130;2022-09-21T00:12:46;3.33;;;1.67;;
48727;SDS011;34527;45.618;5.130;2022-09-21T00:15:13;2.25;;;1.40;;
48727;SDS011;34527;45.618;5.130;2022-09-21T00:17:44;3.83;;;2.20;;
48727;SDS011;34527;45.618;5.130;2022-09-21T00:20:14;2.28;;;1.15;;
48727;SDS011;34527;45.618;5.130;2022-09-21T00:22:40;2.88;;;1.50;;
48727;SDS011;34527;45.618;5.130;2022-09-21T00:25:06;2.08;;;1.40;;
48727;SDS011;34527;45.618;5.130;2022-09-21T00:27:33;3.00;;;1.63;;
48727;SDS011;34527;45.618;5.130;2022-09-21T00:30:00;1.63;;;1.38;;
48727;SDS011;34527;45.618;5.130;2022-09-21T00:32:29;3.97;;;1.77;;
48727;SDS011;34527;45.618;5.130;2022-09-21T00:34:59;1.38;;;1.20;;
48727;SDS011;34527;45.618;5.130;2022-09-21T00:37:26;3.38;;;1.30;;
48727;SDS011;34527;45.618;5.130;2022-09-21T00:39:53;2.47;;;1.30;;
48727;SDS011;34527;45.618;5.130;2022-09-21T00:42:20;3.70;;;1.20;;
48727;SDS011;34527;45.618;5.130;2022-09-21T00:44:49;1.70;;;1.40;;
48727;SDS011;34527;45.618;5.130;2022-09-21T00:47:16;2.33;;;1.40;;
48727;SDS011;34527;45.618;5.130;2022-09-21T00:49:47;2.88;;;1.20;;
48727;SDS011;34527;45.618;5.130;2022-09-21T00:52:16;2.40;;;1.25;;
48727;SDS011;34527;45.618;5.130;2022-09-21T00:57:12;1.63;;;1.25;;
48727;SDS011;34527;45.618;5.130;2022-09-21T00:59:40;1.88;;;1.23;;
48727;SDS011;34527;45.618;5.130;2022-09-21T01:02:09;2.33;;;1.48;;
48727;SDS011;34527;45.618;5.130;2022-09-21T01:04:35;2.17;;;1.40;;
48727;SDS011;34527;45.618;5.130;2022-09-21T01:07:04;4.63;;;1.38;;
48727;SDS011;34527;45.618;5.130;2022-09-21T01:09:36;2.80;;;1.30;;
48727;SDS011;34527;45.618;5.130;2022-09-21T01:17:45;3.42;;;1.40;;
48727;SDS011;34527;45.618;5.130;2022-09-21T01:31:19;3.63;;;1.48;;
48727;SDS011;34527;45.618;5.130;2022-09-21T01:33:53;3.38;;;1.40;;
48727;SDS011;34527;45.618;5.130;2022-09-21T01:36:26;4.53;;;1.35;;
48727;SDS011;34527;45.618;5.130;2022-09-21T01:38:55;2.90;;;1.50;;
48727;SDS011;34527;45.618;5.130;2022-09-21T01:41:27;4.18;;;1.70;;
48727;SDS011;34527;45.618;5.130;2022-09-21T01:43:57;3.67;;;1.55;;
48727;SDS011;34527;45.618;5.130;2022-09-21T01:46:32;2.42;;;1.45;;
48727;SDS011;34527;45.618;5.130;2022-09-21T01:49:13;3.55;;;1.60;;
48727;SDS011;34527;45.618;5.130;2022-09-21T01:51:45;2.85;;;1.83;;
48727;SDS011;34527;45.618;5.130;2022-09-21T01:54:23;4.43;;;1.80;;
48727;SDS011;34527;45.618;5.130;2022-09-21T01:57:04;2.67;;;1.50;;
48727;SDS011;34527;45.618;5.130;2022-09-21T01:59:57;1.85;;;1.27;;
48727;SDS011;34527;45.618;5.130;2022-09-21T02:02:30;3.35;;;1.48;;
48727;SDS011;34527;45.618;5.130;2022-09-21T02:05:09;2.50;;;1.67;;
48727;SDS011;34527;45.618;5.130;2022-09-21T02:07:36;3.45;;;1.60;;
48727;SDS011;34527;45.618;5.130;2022-09-21T02:10:04;3.45;;;1.67;;
48727;SDS011;34527;45.618;5.130;2022-09-21T02:12:33;4.22;;;1.67;;
48727;SDS011;34527;45.618;5.130;2022-09-21T02:14:59;3.15;;;1.60;;
48727;SDS011;34527;45.618;5.130;2022-09-21T02:17:29;2.10;;;1.70;;
48727;SDS011;34527;45.618;5.130;2022-09-21T02:20:17;3.30;;;1.58;;
48727;SDS011;34527;45.618;5.130;2022-09-21T02:25:38;3.25;;;1.50;;
48727;SDS011;34527;45.618;5.130;2022-09-21T02:31:05;4.90;;;1.50;;
48727;SDS011;34527;45.618;5.130;2022-09-21T02:33:55;2.13;;;1.38;;
48727;SDS011;34527;45.618;5.130;2022-09-21T02:36:30;4.10;;;1.40;;
48727;SDS011;34527;45.618;5.130;2022-09-21T02:39:03;2.50;;;1.40;;
48727;SDS011;34527;45.618;5.130;2022-09-21T02:44:25;2.58;;;1.50;;
48727;SDS011;34527;45.618;5.130;2022-09-21T02:47:06;3.05;;;1.67;;
48727;SDS011;34527;45.618;5.130;2022-09-21T02:49:35;2.83;;;1.50;;
48727;SDS011;34527;45.618;5.130;2022-09-21T02:52:10;2.58;;;1.75;;
48727;SDS011;34527;45.618;5.130;2022-09-21T02:54:38;3.15;;;1.50;;
48727;SDS011;34527;45.618;5.130;2022-09-21T02:57:07;3.15;;;1.70;;
48727;SDS011;34527;45.618;5.130;2022-09-21T02:59:36;4.70;;;1.60;;
48727;SDS011;34527;45.618;5.130;2022-09-21T03:02:01;3.67;;;1.70;;
48727;SDS011;34527;45.618;5.130;2022-09-21T03:04:28;2.45;;;1.70;;
48727;SDS011;34527;45.618;5.130;2022-09-21T03:06:55;3.45;;;1.73;;
48727;SDS011;34527;45.618;5.130;2022-09-21T03:09:21;2.45;;;1.55;;
48727;SDS011;34527;45.618;5.130;2022-09-21T03:11:48;3.63;;;1.70;;
48727;SDS011;34527;45.618;5.130;2022-09-21T03:14:15;2.22;;;1.70;;
48727;SDS011;34527;45.618;5.130;2022-09-21T03:16:43;2.92;;;1.73;;
48727;SDS011;34527;45.618;5.130;2022-09-21T03:19:09;6.15;;;1.77;;
48727;SDS011;34527;45.618;5.130;2022-09-21T03:21:36;2.30;;;1.63;;
48727;SDS011;34527;45.618;5.130;2022-09-21T03:24:02;5.80;;;2.03;;
48727;SDS011;34527;45.618;5.130;2022-09-21T03:26:28;2.63;;;1.73;;
48727;SDS011;34527;45.618;5.130;2022-09-21T03:28:54;3.10;;;1.60;;
48727;SDS011;34527;45.618;5.130;2022-09-21T03:31:20;2.03;;;1.83;;
48727;SDS011;34527;45.618;5.130;2022-09-21T03:33:46;4.22;;;1.88;;
48727;SDS011;34527;45.618;5.130;2022-09-21T03:36:12;4.75;;;1.63;;
48727;SDS011;34527;45.618;5.130;2022-09-21T03:38:38;2.38;;;1.70;;
48727;SDS011;34527;45.618;5.130;2022-09-21T03:41:04;3.95;;;1.92;;
48727;SDS011;34527;45.618;5.130;2022-09-21T03:43:30;3.45;;;1.88;;
48727;SDS011;34527;45.618;5.130;2022-09-21T03:45:56;3.00;;;1.45;;
48727;SDS011;34527;45.618;5.130;2022-09-21T03:48:22;3.08;;;1.92;;
48727;SDS011;34527;45.618;5.130;2022-09-21T03:50:48;3.90;;;1.60;;
48727;SDS011;34527;45.618;5.130;2022-09-21T03:53:14;3.85;;;2.10;;
48727;SDS011;34527;45.618;5.130;2022-09-21T03:55:40;3.33;;;1.80;;
48727;SDS011;34527;45.618;5.130;2022-09-21T03:58:06;4.32;;;2.10;;
48727;SDS011;34527;45.618;5.130;2022-09-21T04:00:33;4.72;;;1.95;;
48727;SDS011;34527;45.618;5.130;2022-09-21T04:02:59;4.07;;;1.92;;
48727;SDS011;34527;45.618;5.130;2022-09-21T04:05:26;3.67;;;1.75;;
48727;SDS011;34527;45.618;5.130;2022-09-21T04:07:53;2.35;;;1.90;;
48727;SDS011;34527;45.618;5.130;2022-09-21T04:10:20;2.85;;;1.63;;
48727;SDS011;34527;45.618;5.130;2022-09-21T04:12:57;4.03;;;2.00;;
48727;SDS011;34527;45.618;5.130;2022-09-21T04:15:25;6.80;;;2.10;;
48727;SDS011;34527;45.618;5.130;2022-09-21T04:17:52;3.10;;;2.03;;
48727;SDS011;34527;45.618;5.130;2022-09-21T04:20:18;2.70;;;1.70;;
48727;SDS011;34527;45.618;5.130;2022-09-21T04:22:45;4.47;;;2.00;;
48727;SDS011;34527;45.618;5.130;2022-09-21T04:25:12;5.40;;;2.00;;
48727;SDS011;34527;45.618;5.130;2022-09-21T04:27:38;3.53;;;1.90;;
48727;SDS011;34527;45.618;5.130;2022-09-21T04:30:05;3.47;;;1.85;;
48727;SDS011;34527;45.618;5.130;2022-09-21T04:32:32;3.47;;;2.00;;
48727;SDS011;34527;45.618;5.130;2022-09-21T04:34:58;3.38;;;1.70;;
48727;SDS011;34527;45.618;5.130;2022-09-21T04:37:24;2.03;;;1.80;;
48727;SDS011;34527;45.618;5.130;2022-09-21T04:39:50;5.10;;;2.38;;
48727;SDS011;34527;45.618;5.130;2022-09-21T04:42:16;3.05;;;2.20;;
48727;SDS011;34527;45.618;5.130;2022-09-21T04:44:41;3.22;;;1.88;;
48727;SDS011;34527;45.618;5.130;2022-09-21T04:47:07;2.53;;;1.90;;
48727;SDS011;34527;45.618;5.130;2022-09-21T04:49:33;3.85;;;1.85;;
48727;SDS011;34527;45.618;5.130;2022-09-21T04:51:59;3.42;;;2.15;;
48727;SDS011;34527;45.618;5.130;2022-09-21T04:54:25;3.38;;;2.00;;
48727;SDS011;34527;45.618;5.130;2022-09-21T04:56:51;2.22;;;2.03;;
48727;SDS011;34527;45.618;5.130;2022-09-21T04:59:17;3.75;;;2.22;;
48727;SDS011;34527;45.618;5.130;2022-09-21T05:01:43;4.65;;;2.40;;
48727;SDS011;34527;45.618;5.130;2022-09-21T05:04:08;2.17;;;1.77;;
48727;SDS011;34527;45.618;5.130;2022-09-21T05:06:34;5.25;;;2.20;;
48727;SDS011;34527;45.618;5.130;2022-09-21T05:09:00;2.75;;;2.05;;
48727;SDS011;34527;45.618;5.130;2022-09-21T05:11:45;5.88;;;2.70;;
48727;SDS011;34527;45.618;5.130;2022-09-21T05:14:11;4.13;;;2.08;;
48727;SDS011;34527;45.618;5.130;2022-09-21T05:16:36;4.45;;;2.13;;
48727;SDS011;34527;45.618;5.130;2022-09-21T05:19:02;2.28;;;1.98;;
48727;SDS011;34527;45.618;5.130;2022-09-21T05:21:28;3.65;;;2.22;;
48727;SDS011;34527;45.618;5.130;2022-09-21T05:23:56;4.45;;;2.22;;
48727;SDS011;34527;45.618;5.130;2022-09-21T05:26:22;2.72;;;2.20;;
48727;SDS011;34527;45.618;5.130;2022-09-21T05:28:48;3.38;;;2.13;;
48727;SDS011;34527;45.618;5.130;2022-09-21T05:33:53;5.18;;;2.10;;
48727;SDS011;34527;45.618;5.130;2022-09-21T05:39:04;3.85;;;2.20;;
48727;SDS011;34527;45.618;5.130;2022-09-21T05:41:31;4.68;;;2.58;;
48727;SDS011;34527;45.618;5.130;2022-09-21T05:43:57;7.65;;;2.45;;
48727;SDS011;34527;45.618;5.130;2022-09-21T05:46:34;5.18;;;1.90;;
48727;SDS011;34527;45.618;5.130;2022-09-21T05:52:01;3.67;;;2.60;;
48727;SDS011;34527;45.618;5.130;2022-09-21T05:54:54;4.07;;;2.40;;
48727;SDS011;34527;45.618;5.130;2022-09-21T06:00:23;3.53;;;2.47;;
48727;SDS011;34527;45.618;5.130;2022-09-21T06:02:53;4.70;;;2.63;;
48727;SDS011;34527;45.618;5.130;2022-09-21T06:05:39;4.82;;;2.90;;
48727;SDS011;34527;45.618;5.130;2022-09-21T06:08:07;11.68;;;3.22;;
48727;SDS011;34527;45.618;5.130;2022-09-21T06:10:33;10.15;;;3.35;;
48727;SDS011;34527;45.618;5.130;2022-09-21T06:12:59;4.28;;;2.70;;
48727;SDS011;34527;45.618;5.130;2022-09-21T06:15:25;11.68;;;3.40;;
48727;SDS011;34527;45.618;5.130;2022-09-21T06:17:51;3.83;;;2.65;;
48727;SDS011;34527;45.618;5.130;2022-09-21T06:20:17;8.98;;;4.43;;
48727;SDS011;34527;45.618;5.130;2022-09-21T06:22:43;14.98;;;4.95;;
48727;SDS011;34527;45.618;5.130;2022-09-21T06:25:09;7.07;;;3.25;;
48727;SDS011;34527;45.618;5.130;2022-09-21T06:27:34;13.40;;;3.38;;
48727;SDS011;34527;45.618;5.130;2022-09-21T06:30:00;25.30;;;8.32;;
48727;SDS011;34527;45.618;5.130;2022-09-21T06:32:26;16.48;;;5.95;;
48727;SDS011;34527;45.618;5.130;2022-09-21T06:34:52;7.20;;;3.55;;
48727;SDS011;34527;45.618;5.130;2022-09-21T06:37:18;5.80;;;3.15;;
48727;SDS011;34527;45.618;5.130;2022-09-21T06:39:44;6.18;;;2.92;;
48727;SDS011;34527;45.618;5.130;2022-09-21T06:42:10;4.82;;;2.65;;
48727;SDS011;34527;45.618;5.130;2022-09-21T06:44:36;5.95;;;3.00;;
48727;SDS011;34527;45.618;5.130;2022-09-21T06:47:01;3.95;;;2.50;;
48727;SDS011;34527;45.618;5.130;2022-09-21T06:49:27;6.15;;;2.95;;
48727;SDS011;34527;45.618;5.130;2022-09-21T06:51:54;6.07;;;2.75;;
48727;SDS011;34527;45.618;5.130;2022-09-21T06:54:20;5.07;;;2.75;;
48727;SDS011;34527;45.618;5.130;2022-09-21T06:56:46;5.38;;;2.88;;
48727;SDS011;34527;45.618;5.130;2022-09-21T06:59:12;5.57;;;2.60;;
48727;SDS011;34527;45.618;5.130;2022-09-21T07:01:38;4.20;;;2.60;;
48727;SDS011;34527;45.618;5.130;2022-09-21T07:04:09;5.57;;;2.90;;
48727;SDS011;34527;45.618;5.130;2022-09-21T07:06:49;7.18;;;2.88;;
48727;SDS011;34527;45.618;5.130;2022-09-21T07:09:26;9.93;;;3.20;;
48727;SDS011;34527;45.618;5.130;2022-09-21T07:12:03;4.88;;;3.03;;
48727;SDS011;34527;45.618;5.130;2022-09-21T07:14:46;5.93;;;2.75;;
48727;SDS011;34527;45.618;5.130;2022-09-21T07:17:23;5.70;;;2.67;;
48727;SDS011;34527;45.618;5.130;2022-09-21T07:20:12;7.55;;;3.20;;
48727;SDS011;34527;45.618;5.130;2022-09-21T07:22:49;6.97;;;4.18;;
48727;SDS011;34527;45.618;5.130;2022-09-21T07:25:27;5.28;;;3.30;;
48727;SDS011;34527;45.618;5.130;2022-09-21T07:28:04;7.47;;;3.28;;
48727;SDS011;34527;45.618;5.130;2022-09-21T07:30:40;7.55;;;2.90;;
48727;SDS011;34527;45.618;5.130;2022-09-21T07:33:18;5.97;;;2.95;;
48727;SDS011;34527;45.618;5.130;2022-09-21T07:35:54;5.03;;;3.03;;
48727;SDS011;34527;45.618;5.130;2022-09-21T07:38:37;7.15;;;3.05;;
48727;SDS011;34527;45.618;5.130;2022-09-21T07:41:15;10.38;;;3.42;;
48727;SDS011;34527;45.618;5.130;2022-09-21T07:43:53;6.68;;;2.92;;
48727;SDS011;34527;45.618;5.130;2022-09-21T07:46:30;3.80;;;2.90;;
48727;SDS011;34527;45.618;5.130;2022-09-21T07:49:07;6.13;;;3.00;;
48727;SDS011;34527;45.618;5.130;2022-09-21T07:51:44;5.47;;;2.85;;
48727;SDS011;34527;45.618;5.130;2022-09-21T07:54:21;7.45;;;2.85;;
48727;SDS011;34527;45.618;5.130;2022-09-21T07:56:57;7.05;;;3.60;;
48727;SDS011;34527;45.618;5.130;2022-09-21T07:59:48;5.60;;;2.83;;
48727;SDS011;34527;45.618;5.130;2022-09-21T08:02:27;5.65;;;3.03;;
48727;SDS011;34527;45.618;5.130;2022-09-21T08:05:04;4.28;;;3.20;;
48727;SDS011;34527;45.618;5.130;2022-09-21T08:07:41;5.72;;;3.30;;
48727;SDS011;34527;45.618;5.130;2022-09-21T08:10:19;6.72;;;3.10;;
48727;SDS011;34527;45.618;5.130;2022-09-21T08:12:59;6.57;;;3.00;;
48727;SDS011;34527;45.618;5.130;2022-09-21T08:15:39;7.18;;;2.67;;
48727;SDS011;34527;45.618;5.130;2022-09-21T08:18:17;4.00;;;2.85;;
48727;SDS011;34527;45.618;5.130;2022-09-21T08:21:02;6.45;;;3.20;;
48727;SDS011;34527;45.618;5.130;2022-09-21T08:23:41;4.45;;;3.20;;
48727;SDS011;34527;45.618;5.130;2022-09-21T08:26:18;4.80;;;3.10;;
48727;SDS011;34527;45.618;5.130;2022-09-21T08:28:55;4.13;;;2.95;;
48727;SDS011;34527;45.618;5.130;2022-09-21T08:31:31;5.00;;;2.88;;
48727;SDS011;34527;45.618;5.130;2022-09-21T08:34:08;4.05;;;2.80;;
48727;SDS011;34527;45.618;5.130;2022-09-21T08:36:45;4.97;;;2.92;;
48727;SDS011;34527;45.618;5.130;2022-09-21T08:39:12;5.57;;;3.00;;
48727;SDS011;34527;45.618;5.130;2022-09-21T08:41:47;5.63;;;2.85;;
48727;SDS011;34527;45.618;5.130;2022-09-21T08:44:23;5.47;;;3.10;;
48727;SDS011;34527;45.618;5.130;2022-09-21T08:47:16;5.53;;;3.00;;
48727;SDS011;34527;45.618;5.130;2022-09-21T08:49:50;6.30;;;2.60;;
48727;SDS011;34527;45.618;5.130;2022-09-21T08:52:21;5.60;;;3.05;;
48727;SDS011;34527;45.618;5.130;2022-09-21T08:54:53;5.47;;;3.28;;
48727;SDS011;34527;45.618;5.130;2022-09-21T08:57:56;5.20;;;2.88;;
48727;SDS011;34527;45.618;5.130;2022-09-21T09:00:25;4.55;;;2.88;;
48727;SDS011;34527;45.618;5.130;2022-09-21T09:05:51;4.47;;;2.90;;
48727;SDS011;34527;45.618;5.130;2022-09-21T09:08:31;7.43;;;3.08;;
48727;SDS011;34527;45.618;5.130;2022-09-21T09:16:46;5.35;;;2.80;;
48727;SDS011;34527;45.618;5.130;2022-09-21T09:19:46;5.72;;;2.60;;
48727;SDS011;34527;45.618;5.130;2022-09-21T09:22:28;3.97;;;2.45;;
48727;SDS011;34527;45.618;5.130;2022-09-21T09:25:11;5.50;;;2.75;;
48727;SDS011;34527;45.618;5.130;2022-09-21T09:27:54;3.03;;;2.40;;
48727;SDS011;34527;45.618;5.130;2022-09-21T09:30:30;5.00;;;2.50;;
48727;SDS011;34527;45.618;5.130;2022-09-21T09:35:42;7.20;;;3.08;;
48727;SDS011;34527;45.618;5.130;2022-09-21T09:38:38;5.95;;;2.78;;
48727;SDS011;34527;45.618;5.130;2022-09-21T09:41:28;6.93;;;2.83;;
48727;SDS011;34527;45.618;5.130;2022-09-21T09:44:20;4.38;;;2.40;;
48727;SDS011;34527;45.618;5.130;2022-09-21T09:47:09;5.03;;;2.80;;
48727;SDS011;34527;45.618;5.130;2022-09-21T09:52:34;10.82;;;3.22;;
48727;SDS011;34527;45.618;5.130;2022-09-21T09:55:10;4.63;;;2.78;;
48727;SDS011;34527;45.618;5.130;2022-09-21T09:57:47;5.00;;;2.60;;
48727;SDS011;34527;45.618;5.130;2022-09-21T10:00:22;6.15;;;2.58;;
48727;SDS011;34527;45.618;5.130;2022-09-21T10:02:54;7.03;;;2.75;;
48727;SDS011;34527;45.618;5.130;2022-09-21T10:05:34;6.22;;;2.33;;
48727;SDS011;34527;45.618;5.130;2022-09-21T10:11:02;9.32;;;2.60;;
48727;SDS011;34527;45.618;5.130;2022-09-21T10:13:42;6.03;;;2.45;;
48727;SDS011;34527;45.618;5.130;2022-09-21T10:16:21;6.07;;;2.45;;
48727;SDS011;34527;45.618;5.130;2022-09-21T10:18:56;6.63;;;2.72;;
48727;SDS011;34527;45.618;5.130;2022-09-21T10:21:38;6.10;;;3.08;;
48727;SDS011;34527;45.618;5.130;2022-09-21T10:26:55;7.95;;;2.55;;
48727;SDS011;34527;45.618;5.130;2022-09-21T10:29:38;3.38;;;2.00;;
48727;SDS011;34527;45.618;5.130;2022-09-21T10:34:40;6.13;;;2.95;;
48727;SDS011;34527;45.618;5.130;2022-09-21T10:37:38;6.47;;;2.72;;
48727;SDS011;34527;45.618;5.130;2022-09-21T10:42:50;8.93;;;2.30;;
48727;SDS011;34527;45.618;5.130;2022-09-21T10:47:54;7.18;;;2.60;;
48727;SDS011;34527;45.618;5.130;2022-09-21T10:50:24;6.03;;;2.20;;
48727;SDS011;34527;45.618;5.130;2022-09-21T10:55:36;5.00;;;2.30;;
48727;SDS011;34527;45.618;5.130;2022-09-21T10:58:10;4.68;;;2.10;;
48727;SDS011;34527;45.618;5.130;2022-09-21T11:00:45;6.95;;;2.08;;
48727;SDS011;34527;45.618;5.130;2022-09-21T11:09:08;7.80;;;2.53;;
48727;SDS011;34527;45.618;5.130;2022-09-21T11:11:36;4.28;;;2.20;;
48727;SDS011;34527;45.618;5.130;2022-09-21T11:14:29;4.28;;;2.30;;
48727;SDS011;34527;45.618;5.130;2022-09-21T11:20:25;3.60;;;1.83;;
48727;SDS011;34527;45.618;5.130;2022-09-21T11:22:58;5.68;;;2.50;;
48727;SDS011;34527;45.618;5.130;2022-09-21T11:25:45;4.28;;;2.40;;
48727;SDS011;34527;45.618;5.130;2022-09-21T11:28:24;4.35;;;2.22;;
48727;SDS011;34527;45.618;5.130;2022-09-21T11:31:09;4.50;;;2.42;;
48727;SDS011;34527;45.618;5.130;2022-09-21T11:39:51;5.05;;;1.85;;
48727;SDS011;34527;45.618;5.130;2022-09-21T11:42:45;5.93;;;2.40;;
48727;SDS011;34527;45.618;5.130;2022-09-21T12:09:51;5.25;;;2.15;;
48727;SDS011;34527;45.618;5.130;2022-09-21T12:12:28;3.92;;;2.05;;
48727;SDS011;34527;45.618;5.130;2022-09-21T12:23:37;6.05;;;1.85;;
48727;SDS011;34527;45.618;5.130;2022-09-21T12:26:09;4.57;;;1.70;;
48727;SDS011;34527;45.618;5.130;2022-09-21T12:28:45;2.95;;;1.90;;
48727;SDS011;34527;45.618;5.130;2022-09-21T12:31:27;5.70;;;2.13;;
48727;SDS011;34527;45.618;5.130;2022-09-21T12:34:14;5.97;;;2.15;;
48727;SDS011;34527;45.618;5.130;2022-09-21T12:36:45;4.65;;;2.03;;
48727;SDS011;34527;45.618;5.130;2022-09-21T12:39:53;5.50;;;1.92;;
48727;SDS011;34527;45.618;5.130;2022-09-21T12:42:27;4.25;;;1.75;;
48727;SDS011;34527;45.618;5.130;2022-09-21T12:53:21;3.40;;;1.70;;
48727;SDS011;34527;45.618;5.130;2022-09-21T12:55:55;3.72;;;2.13;;
48727;SDS011;34527;45.618;5.130;2022-09-21T13:09:32;6.05;;;2.20;;
48727;SDS011;34527;45.618;5.130;2022-09-21T13:12:07;4.07;;;2.08;;
48727;SDS011;34527;45.618;5.130;2022-09-21T13:14:44;6.40;;;1.85;;
48727;SDS011;34527;45.618;5.130;2022-09-21T13:17:20;5.47;;;1.60;;
48727;SDS011;34527;45.618;5.130;2022-09-21T13:20:00;5.45;;;1.70;;
48727;SDS011;34527;45.618;5.130;2022-09-21T13:22:39;4.80;;;2.15;;
48727;SDS011;34527;45.618;5.130;2022-09-21T13:25:06;3.90;;;1.80;;
48727;SDS011;34527;45.618;5.130;2022-09-21T13:33:38;3.28;;;1.52;;
48727;SDS011;34527;45.618;5.130;2022-09-21T13:36:39;4.68;;;1.60;;
48727;SDS011;34527;45.618;5.130;2022-09-21T13:39:11;5.72;;;1.70;;
48727;SDS011;34527;45.618;5.130;2022-09-21T13:41:45;3.42;;;1.70;;
48727;SDS011;34527;45.618;5.130;2022-09-21T13:44:18;4.13;;;1.75;;
48727;SDS011;34527;45.618;5.130;2022-09-21T13:47:03;12.02;;;1.67;;
48727;SDS011;34527;45.618;5.130;2022-09-21T13:49:31;7.65;;;1.90;;
48727;SDS011;34527;45.618;5.130;2022-09-21T13:55:03;10.45;;;2.00;;
48727;SDS011;34527;45.618;5.130;2022-09-21T14:02:39;3.00;;;1.73;;
48727;SDS011;34527;45.618;5.130;2022-09-21T14:10:50;5.70;;;1.63;;
48727;SDS011;34527;45.618;5.130;2022-09-21T14:13:44;2.13;;;1.70;;
48727;SDS011;34527;45.618;5.130;2022-09-21T14:19:35;4.55;;;2.10;;
48727;SDS011;34527;45.618;5.130;2022-09-21T14:30:46;2.83;;;1.30;;
48727;SDS011;34527;45.618;5.130;2022-09-21T14:35:25;5.60;;;1.50;;
48727;SDS011;34527;45.618;5.130;2022-09-21T14:38:00;3.08;;;1.35;;
48727;SDS011;34527;45.618;5.130;2022-09-21T14:40:35;5.60;;;1.67;;
48727;SDS011;34527;45.618;5.130;2022-09-21T14:43:07;5.80;;;1.65;;
48727;SDS011;34527;45.618;5.130;2022-09-21T14:55:08;3.88;;;1.40;;
48727;SDS011;34527;45.618;5.130;2022-09-21T14:57:44;4.10;;;1.58;;
48727;SDS011;34527;45.618;5.130;2022-09-21T15:00:40;4.57;;;1.80;;
48727;SDS011;34527;45.618;5.130;2022-09-21T15:12:38;2.83;;;1.40;;
48727;SDS011;34527;45.618;5.130;2022-09-21T15:18:21;4.70;;;1.80;;
48727;SDS011;34527;45.618;5.130;2022-09-21T15:21:00;3.92;;;2.08;;
48727;SDS011;34527;45.618;5.130;2022-09-21T15:23:32;4.18;;;1.70;;
48727;SDS011;34527;45.618;5.130;2022-09-21T15:26:00;3.17;;;1.58;;
48727;SDS011;34527;45.618;5.130;2022-09-21T15:28:33;4.80;;;1.70;;
48727;SDS011;34527;45.618;5.130;2022-09-21T15:31:06;8.05;;;2.80;;
48727;SDS011;34527;45.618;5.130;2022-09-21T15:33:36;3.30;;;1.50;;
48727;SDS011;34527;45.618;5.130;2022-09-21T15:36:03;4.43;;;1.70;;
48727;SDS011;34527;45.618;5.130;2022-09-21T15:38:32;2.72;;;1.42;;
48727;SDS011;34527;45.618;5.130;2022-09-21T15:41:00;4.00;;;1.70;;
48727;SDS011;34527;45.618;5.130;2022-09-21T15:43:27;2.50;;;1.40;;
48727;SDS011;34527;45.618;5.130;2022-09-21T15:48:29;2.25;;;1.30;;
48727;SDS011;34527;45.618;5.130;2022-09-21T15:53:35;2.25;;;1.30;;
48727;SDS011;34527;45.618;5.130;2022-09-21T15:56:05;1.77;;;1.50;;
48727;SDS011;34527;45.618;5.130;2022-09-21T15:58:36;2.42;;;1.50;;
48727;SDS011;34527;45.618;5.130;2022-09-21T16:01:11;3.05;;;1.50;;
48727;SDS011;34527;45.618;5.130;2022-09-21T16:03:40;2.40;;;1.70;;
48727;SDS011;34527;45.618;5.130;2022-09-21T16:06:25;2.83;;;1.63;;
48727;SDS011;34527;45.618;5.130;2022-09-21T16:08:53;4.47;;;1.85;;
48727;SDS011;34527;45.618;5.130;2022-09-21T16:11:31;6.15;;;2.03;;
48727;SDS011;34527;45.618;5.130;2022-09-21T16:14:09;2.92;;;1.67;;
48727;SDS011;34527;45.618;5.130;2022-09-21T16:22:30;3.17;;;1.83;;
48727;SDS011;34527;45.618;5.130;2022-09-21T16:25:25;3.08;;;1.75;;
48727;SDS011;34527;45.618;5.130;2022-09-21T16:27:56;2.92;;;1.75;;
48727;SDS011;34527;45.618;5.130;2022-09-21T16:30:39;4.97;;;1.80;;
48727;SDS011;34527;45.618;5.130;2022-09-21T16:38:50;5.53;;;1.75;;
48727;SDS011;34527;45.618;5.130;2022-09-21T16:41:29;6.22;;;1.80;;
48727;SDS011;34527;45.618;5.130;2022-09-21T16:44:12;3.70;;;1.80;;
48727;SDS011;34527;45.618;5.130;2022-09-21T16:46:50;5.15;;;1.83;;
48727;SDS011;34527;45.618;5.130;2022-09-21T16:51:48;3.47;;;1.70;;
48727;SDS011;34527;45.618;5.130;2022-09-21T16:54:15;4.40;;;1.88;;
48727;SDS011;34527;45.618;5.130;2022-09-21T16:56:41;7.93;;;2.15;;
48727;SDS011;34527;45.618;5.130;2022-09-21T16:59:14;5.18;;;1.88;;
48727;SDS011;34527;45.618;5.130;2022-09-21T17:01:50;3.60;;;1.83;;
48727;SDS011;34527;45.618;5.130;2022-09-21T17:04:21;4.57;;;1.90;;
48727;SDS011;34527;45.618;5.130;2022-09-21T17:06:54;3.47;;;1.60;;
48727;SDS011;34527;45.618;5.130;2022-09-21T17:09:25;3.92;;;1.98;;
48727;SDS011;34527;45.618;5.130;2022-09-21T17:11:55;4.47;;;1.73;;
48727;SDS011;34527;45.618;5.130;2022-09-21T17:14:25;3.83;;;1.60;;
48727;SDS011;34527;45.618;5.130;2022-09-21T17:16:59;7.20;;;2.05;;
48727;SDS011;34527;45.618;5.130;2022-09-21T17:19:28;7.35;;;2.30;;
48727;SDS011;34527;45.618;5.130;2022-09-21T17:21:55;7.50;;;2.45;;
48727;SDS011;34527;45.618;5.130;2022-09-21T17:24:21;3.50;;;2.10;;
48727;SDS011;34527;45.618;5.130;2022-09-21T17:26:47;4.15;;;2.40;;
48727;SDS011;34527;45.618;5.130;2022-09-21T17:29:31;5.80;;;2.17;;
48727;SDS011;34527;45.618;5.130;2022-09-21T17:32:01;3.15;;;1.80;;
48727;SDS011;34527;45.618;5.130;2022-09-21T17:34:30;3.50;;;1.90;;
48727;SDS011;34527;45.618;5.130;2022-09-21T17:36:59;5.10;;;1.95;;
48727;SDS011;34527;45.618;5.130;2022-09-21T17:39:25;5.22;;;1.88;;
48727;SDS011;34527;45.618;5.130;2022-09-21T17:41:56;3.17;;;1.80;;
48727;SDS011;34527;45.618;5.130;2022-09-21T17:47:36;3.42;;;2.00;;
48727;SDS011;34527;45.618;5.130;2022-09-21T17:52:41;8.65;;;2.58;;
48727;SDS011;34527;45.618;5.130;2022-09-21T17:55:26;3.35;;;2.00;;
48727;SDS011;34527;45.618;5.130;2022-09-21T18:03:26;3.22;;;1.98;;
48727;SDS011;34527;45.618;5.130;2022-09-21T18:05:55;4.35;;;2.08;;
48727;SDS011;34527;45.618;5.130;2022-09-21T18:08:25;2.15;;;1.90;;
48727;SDS011;34527;45.618;5.130;2022-09-21T18:22:17;4.43;;;2.28;;
48727;SDS011;34527;45.618;5.130;2022-09-21T18:24:56;2.45;;;1.98;;
48727;SDS011;34527;45.618;5.130;2022-09-21T18:27:23;5.93;;;1.98;;
48727;SDS011;34527;45.618;5.130;2022-09-21T18:29:49;4.93;;;2.35;;
48727;SDS011;34527;45.618;5.130;2022-09-21T18:32:18;3.47;;;2.08;;
48727;SDS011;34527;45.618;5.130;2022-09-21T18:41:02;6.25;;;2.60;;
48727;SDS011;34527;45.618;5.130;2022-09-21T18:46:11;5.22;;;2.38;;
48727;SDS011;34527;45.618;5.130;2022-09-21T18:48:44;5.20;;;2.45;;
48727;SDS011;34527;45.618;5.130;2022-09-21T18:53:48;3.50;;;2.10;;
48727;SDS011;34527;45.618;5.130;2022-09-21T18:56:20;5.18;;;2.08;;
48727;SDS011;34527;45.618;5.130;2022-09-21T18:58:50;4.00;;;2.25;;
48727;SDS011;34527;45.618;5.130;2022-09-21T19:01:17;5.47;;;2.15;;
48727;SDS011;34527;45.618;5.130;2022-09-21T19:03:46;5.53;;;2.30;;
48727;SDS011;34527;45.618;5.130;2022-09-21T19:09:49;3.97;;;2.03;;
48727;SDS011;34527;45.618;5.130;2022-09-21T19:12:26;3.80;;;2.30;;
48727;SDS011;34527;45.618;5.130;2022-09-21T19:23:07;3.45;;;1.95;;
48727;SDS011;34527;45.618;5.130;2022-09-21T19:25:43;4.55;;;2.00;;
48727;SDS011;34527;45.618;5.130;2022-09-21T19:30:50;4.25;;;1.88;;
48727;SDS011;34527;45.618;5.130;2022-09-21T19:33:22;3.60;;;2.28;;
48727;SDS011;34527;45.618;5.130;2022-09-21T19:35:53;5.00;;;2.15;;
48727;SDS011;34527;45.618;5.130;2022-09-21T19:38:20;4.13;;;1.95;;
48727;SDS011;34527;45.618;5.130;2022-09-21T19:40:46;5.47;;;2.13;;